createdAt,value
2018-12-20T00:01:25.078Z,100406.48
2018-12-20T00:03:54.069Z,100408.82
2018-12-20T00:06:23.241Z,100402.17
2018-12-20T00:08:52.395Z,100401.34
2018-12-20T00:11:21.431Z,100396.83
2018-12-20T00:13:50.640Z,100398.53
2018-12-20T00:16:20.009Z,100397.95
2018-12-20T00:18:49.221Z,100394.37
2018-12-20T00:21:18.466Z,100393.86
2018-12-20T00:23:47.528Z,100399.52
2018-12-20T00:26:16.617Z,100395.45
2018-12-20T00:28:45.782Z,100397.63
2018-12-20T00:31:14.909Z,100396.47
2018-12-20T00:33:44.138Z,100394.44
2018-12-20T00:36:13.290Z,100407.05
2018-12-20T00:38:42.537Z,100399.96
2018-12-20T00:41:51.994Z,100395.66
2018-12-20T00:44:20.954Z,100402.17
2018-12-20T00:46:50.173Z,100400.84
2018-12-20T00:49:19.273Z,100405.28
2018-12-20T00:51:48.581Z,100399.79
2018-12-20T00:54:17.867Z,100401.84
2018-12-20T00:56:47.029Z,100405.11
2018-12-20T00:59:16.137Z,100408.39
2018-12-20T01:01:45.259Z,100407.50
2018-12-20T01:04:14.407Z,100406.25
2018-12-20T01:06:43.567Z,100401.69
2018-12-20T01:09:12.881Z,100402.09
2018-12-20T01:11:42.304Z,100404.45
2018-12-20T01:14:11.597Z,100405.16
2018-12-20T01:16:40.617Z,100402.72
2018-12-20T01:19:09.749Z,100411.91
2018-12-20T01:21:39.048Z,100412.94
2018-12-20T01:24:10.296Z,100415.94
2018-12-20T01:27:26.371Z,100410.16
2018-12-20T01:30:05.507Z,100408.78
2018-12-20T01:32:47.617Z,100411.48
2018-12-20T01:38:43.774Z,100417.11
2018-12-20T01:41:51.567Z,100421.43
2018-12-20T01:44:53.484Z,100419.58
2018-12-20T01:47:27.322Z,100421.39
2018-12-20T01:49:59.995Z,100417.38
2018-12-20T01:52:56.205Z,100423.64
2018-12-20T01:55:25.283Z,100415.16
2018-12-20T01:57:54.298Z,100416.91
2018-12-20T02:00:34.468Z,100414.16
2018-12-20T02:03:03.676Z,100418.02
2018-12-20T02:05:32.848Z,100410.62
2018-12-20T02:08:01.983Z,100413.23
2018-12-20T02:10:31.164Z,100403.42
2018-12-20T02:13:00.198Z,100406.00
2018-12-20T02:15:29.231Z,100406.65
2018-12-20T02:17:58.399Z,100401.38
2018-12-20T02:20:27.427Z,100396.06
2018-12-20T02:22:56.455Z,100403.09
2018-12-20T02:25:25.860Z,100400.70
2018-12-20T02:27:54.960Z,100391.28
2018-12-20T02:30:24.305Z,100392.87
2018-12-20T02:32:54.015Z,100388.59
2018-12-20T02:35:23.429Z,100389.39
2018-12-20T02:37:52.725Z,100383.57
2018-12-20T02:40:22.028Z,100380.41
2018-12-20T02:42:51.229Z,100384.86
2018-12-20T02:45:20.479Z,100378.34
2018-12-20T02:47:49.586Z,100371.31
2018-12-20T02:50:18.560Z,100366.08
2018-12-20T02:52:48.071Z,100366.95
2018-12-20T02:55:17.398Z,100372.20
2018-12-20T02:57:46.600Z,100370.38
2018-12-20T03:00:15.870Z,100370.88
2018-12-20T03:02:45.261Z,100363.30
2018-12-20T03:05:14.399Z,100369.49
2018-12-20T03:07:43.756Z,100363.72
2018-12-20T03:10:12.900Z,100362.39
2018-12-20T03:12:41.943Z,100362.59
2018-12-20T03:15:19.806Z,100358.35
2018-12-20T03:17:46.039Z,100358.02
2018-12-20T03:20:15.144Z,100357.39
2018-12-20T03:22:44.149Z,100354.73
2018-12-20T03:25:13.225Z,100357.14
2018-12-20T03:27:42.195Z,100358.52
2018-12-20T03:30:11.221Z,100356.31
2018-12-20T03:32:40.613Z,100356.11
2018-12-20T03:35:09.894Z,100356.36
2018-12-20T03:37:39.528Z,100353.95
2018-12-20T03:40:09.045Z,100356.02
2018-12-20T03:42:38.236Z,100360.09
2018-12-20T03:45:07.441Z,100362.66
2018-12-20T03:47:36.751Z,100358.29
2018-12-20T03:50:06.144Z,100357.91
2018-12-20T03:52:35.138Z,100353.20
2018-12-20T03:55:04.683Z,100360.81
2018-12-20T03:57:33.929Z,100356.49
2018-12-20T04:00:02.873Z,100355.11
2018-12-20T04:02:31.906Z,100360.34
2018-12-20T04:05:01.134Z,100355.97
2018-12-20T04:07:30.537Z,100359.88
2018-12-20T04:09:59.720Z,100357.86
2018-12-20T04:12:29.010Z,100352.21
2018-12-20T04:14:58.107Z,100351.09
2018-12-20T04:17:29.113Z,100353.22
2018-12-20T04:19:58.165Z,100350.27
2018-12-20T04:22:27.062Z,100354.17
2018-12-20T04:24:56.245Z,100348.66
2018-12-20T04:27:25.407Z,100350.50
2018-12-20T04:29:54.434Z,100347.51
2018-12-20T04:32:23.315Z,100348.84
2018-12-20T04:34:52.393Z,100346.17
2018-12-20T04:37:21.397Z,100347.72
2018-12-20T04:39:50.526Z,100344.55
2018-12-20T04:42:19.866Z,100348.55
2018-12-20T04:44:49.035Z,100349.46
2018-12-20T04:47:18.147Z,100347.62
2018-12-20T04:49:47.477Z,100348.66
2018-12-20T04:52:16.663Z,100345.29
2018-12-20T04:54:45.999Z,100346.30
2018-12-20T04:57:15.009Z,100344.84
2018-12-20T04:59:44.272Z,100350.17
2018-12-20T05:02:13.401Z,100349.79
2018-12-20T05:04:42.489Z,100346.41
2018-12-20T05:07:11.767Z,100347.36
2018-12-20T05:09:40.874Z,100346.59
2018-12-20T05:12:10.055Z,100347.59
2018-12-20T05:14:39.873Z,100346.88
2018-12-20T05:17:09.302Z,100345.16
2018-12-20T05:19:38.627Z,100345.78
2018-12-20T05:22:07.838Z,100345.40
2018-12-20T05:24:36.910Z,100350.45
2018-12-20T05:27:06.073Z,100350.56
2018-12-20T05:29:35.207Z,100352.73
2018-12-20T05:32:04.553Z,100355.28
2018-12-20T05:34:33.614Z,100348.68
2018-12-20T05:37:02.849Z,100345.72
2018-12-20T05:39:32.192Z,100351.05
2018-12-20T05:42:01.520Z,100349.06
2018-12-20T05:44:30.851Z,100351.94
2018-12-20T05:47:00.169Z,100357.17
2018-12-20T05:49:29.138Z,100355.22
2018-12-20T05:51:58.297Z,100348.68
2018-12-20T05:54:27.494Z,100355.67
2018-12-20T05:56:56.784Z,100351.96
2018-12-20T05:59:25.864Z,100355.06
2018-12-20T06:01:55.108Z,100358.56
2018-12-20T06:04:24.221Z,100358.12
2018-12-20T06:06:53.314Z,100362.62
2018-12-20T06:09:22.583Z,100361.11
2018-12-20T06:11:51.850Z,100359.89
2018-12-20T06:14:21.114Z,100363.80
2018-12-20T06:16:50.364Z,100364.83
2018-12-20T06:19:19.433Z,100368.30
2018-12-20T06:21:48.548Z,100372.83
2018-12-20T06:24:17.614Z,100372.83
2018-12-20T06:26:46.613Z,100375.07
2018-12-20T06:29:15.553Z,100367.73
2018-12-20T06:31:44.624Z,100369.86
2018-12-20T06:34:13.605Z,100367.31
2018-12-20T06:36:42.794Z,100366.30
2018-12-20T06:39:11.725Z,100368.97
2018-12-20T06:41:44.462Z,100367.25
2018-12-20T06:44:13.600Z,100372.07
2018-12-20T06:46:47.793Z,100376.25
2018-12-20T06:49:17.393Z,100376.92
2018-12-20T06:51:46.564Z,100381.09
2018-12-20T06:54:15.544Z,100380.80
2018-12-20T06:56:44.649Z,100382.25
2018-12-20T06:59:13.650Z,100385.92
2018-12-20T07:01:42.704Z,100377.09
2018-12-20T07:04:11.749Z,100380.18
2018-12-20T07:06:40.789Z,100377.58
2018-12-20T07:09:10.905Z,100379.95
2018-12-20T07:11:39.960Z,100381.08
2018-12-20T07:14:08.957Z,100381.91
2018-12-20T07:16:38.064Z,100379.86
2018-12-20T07:19:07.205Z,100382.42
2018-12-20T07:21:36.181Z,100383.14
2018-12-20T07:24:05.345Z,100386.84
2018-12-20T07:26:34.305Z,100388.80
2018-12-20T07:29:03.334Z,100385.52
2018-12-20T07:31:32.382Z,100388.06
2018-12-20T07:34:01.461Z,100388.95
2018-12-20T07:36:30.475Z,100387.30
2018-12-20T07:38:59.572Z,100383.72
2018-12-20T07:41:28.667Z,100385.05
2018-12-20T07:43:57.960Z,100393.34
2018-12-20T07:46:26.993Z,100393.06
2018-12-20T07:48:56.388Z,100400.23
2018-12-20T07:51:25.534Z,100396.73
2018-12-20T07:53:54.754Z,100395.70
2018-12-20T07:56:23.777Z,100397.04
2018-12-20T07:58:52.770Z,100400.69
2018-12-20T08:01:23.411Z,100402.28
2018-12-20T08:03:52.502Z,100400.27
2018-12-20T08:06:21.529Z,100405.92
2018-12-20T08:08:50.493Z,100406.93
2018-12-20T08:11:19.609Z,100405.22
2018-12-20T08:13:48.639Z,100407.73
2018-12-20T08:16:17.729Z,100411.37
2018-12-20T08:18:46.794Z,100408.06
2018-12-20T08:21:15.916Z,100407.52
2018-12-20T08:23:44.892Z,100410.31
2018-12-20T08:26:13.974Z,100408.50
2018-12-20T08:28:43.121Z,100412.22
2018-12-20T08:31:12.269Z,100404.55
2018-12-20T08:33:41.270Z,100410.94
2018-12-20T08:36:10.261Z,100412.67
2018-12-20T08:38:39.228Z,100417.22
2018-12-20T08:41:09.144Z,100414.55
2018-12-20T08:43:38.501Z,100418.05
2018-12-20T08:46:07.485Z,100417.84
2018-12-20T08:48:36.543Z,100421.55
2018-12-20T08:51:05.657Z,100423.61
2018-12-20T08:53:34.726Z,100423.61
2018-12-20T08:56:03.833Z,100426.27
2018-12-20T08:58:40.361Z,100428.11
2018-12-20T09:01:09.424Z,100422.06
2018-12-20T09:03:38.374Z,100428.11
2018-12-20T09:06:07.534Z,100429.27
2018-12-20T09:08:58.479Z,100428.84
2018-12-20T09:11:27.517Z,100429.16
2018-12-20T09:13:56.488Z,100430.20
2018-12-20T09:16:25.445Z,100436.05
2018-12-20T09:18:54.534Z,100433.71
2018-12-20T09:21:23.545Z,100440.70
2018-12-20T09:23:52.646Z,100436.92
2018-12-20T09:26:21.812Z,100443.19
2018-12-20T09:28:50.894Z,100435.00
2018-12-20T09:31:19.998Z,100432.52
2018-12-20T09:33:49.130Z,100435.91
2018-12-20T09:36:18.186Z,100438.68
2018-12-20T09:39:13.327Z,100440.45
2018-12-20T09:41:49.480Z,100441.09
2018-12-20T09:44:26.721Z,100438.73
2018-12-20T09:47:11.799Z,100430.92
2018-12-20T09:49:45.330Z,100432.28
2018-12-20T09:52:14.550Z,100428.15
2018-12-20T09:54:46.809Z,100428.99
2018-12-20T09:57:23.817Z,100432.36
2018-12-20T09:59:56.622Z,100424.73
2018-12-20T10:02:28.897Z,100424.52
2018-12-20T10:05:02.040Z,100426.86
2018-12-20T10:07:35.850Z,100418.81
2018-12-20T10:10:08.999Z,100426.67
2018-12-20T10:12:46.186Z,100427.67
2018-12-20T10:15:19.042Z,100427.41
2018-12-20T10:17:56.109Z,100427.69
2018-12-20T10:20:28.965Z,100421.83
2018-12-20T10:22:58.581Z,100422.42
2018-12-20T10:25:31.637Z,100421.03
2018-12-20T10:28:02.447Z,100414.32
2018-12-20T10:30:35.072Z,100410.13
2018-12-20T10:33:04.197Z,100410.37
2018-12-20T10:35:33.301Z,100414.41
2018-12-20T10:38:02.362Z,100413.02
2018-12-20T10:40:31.453Z,100409.78
2018-12-20T10:43:00.473Z,100406.27
2018-12-20T10:45:29.458Z,100403.63
2018-12-20T10:47:58.663Z,100401.62
2018-12-20T10:50:27.723Z,100399.45
2018-12-20T10:52:56.869Z,100400.84
2018-12-20T10:55:26.105Z,100395.04
2018-12-20T10:57:55.129Z,100398.70
2018-12-20T11:00:24.766Z,100403.21
2018-12-20T11:02:58.970Z,100400.39
2018-12-20T11:06:08.429Z,100406.40
2018-12-20T11:08:50.376Z,100401.73
2018-12-20T11:11:21.362Z,100393.42
2018-12-20T11:13:50.837Z,100389.86
2018-12-20T11:16:19.934Z,100390.59
2018-12-20T11:18:48.922Z,100385.56
2018-12-20T11:21:17.886Z,100384.67
2018-12-20T11:23:46.850Z,100375.11
2018-12-20T11:26:16.408Z,100376.88
2018-12-20T11:28:45.965Z,100383.80
2018-12-20T11:31:14.996Z,100379.92
2018-12-20T11:33:44.058Z,100377.89
2018-12-20T11:36:13.444Z,100380.35
2018-12-20T11:38:42.394Z,100379.19
2018-12-20T11:41:12.341Z,100381.55
2018-12-20T11:43:41.375Z,100377.73
2018-12-20T11:46:10.418Z,100381.12
2018-12-20T11:48:43.345Z,100384.47
2018-12-20T11:51:12.373Z,100386.55
2018-12-20T11:53:42.269Z,100379.44
2018-12-20T11:56:37.765Z,100381.20
2018-12-20T11:59:14.468Z,100372.67
2018-12-20T12:01:51.370Z,100378.34
2018-12-20T12:04:20.385Z,100378.09
2018-12-20T12:07:09.835Z,100374.77
2018-12-20T12:09:46.298Z,100377.92
2018-12-20T12:12:15.582Z,100371.12
2018-12-20T12:14:44.617Z,100375.98
2018-12-20T12:17:13.667Z,100372.92
2018-12-20T12:19:42.740Z,100374.97
2018-12-20T12:23:01.973Z,100377.03
2018-12-20T12:25:38.322Z,100378.00
2018-12-20T12:28:34.997Z,100373.92
2018-12-20T12:31:04.082Z,100361.66
2018-12-20T12:33:34.893Z,100357.02
2018-12-20T12:36:38.197Z,100356.31
2018-12-20T12:39:21.509Z,100355.69
2018-12-20T12:41:58.194Z,100354.17
2018-12-20T12:44:30.794Z,100354.29
2018-12-20T12:47:09.009Z,100356.51
2018-12-20T12:49:42.555Z,100353.62
2018-12-20T12:52:15.733Z,100352.37
2018-12-20T12:54:52.613Z,100354.31
2018-12-20T12:57:23.640Z,100352.63
2018-12-20T12:59:56.722Z,100356.09
2018-12-20T13:02:29.660Z,100357.00
2018-12-20T13:05:02.566Z,100353.22
2018-12-20T13:07:35.809Z,100352.98
2018-12-20T13:10:08.710Z,100356.30
2018-12-20T13:12:41.874Z,100350.33
2018-12-20T13:15:14.095Z,100350.87
2018-12-20T13:17:51.169Z,100355.36
2018-12-20T13:20:25.076Z,100351.06
2018-12-20T13:22:58.062Z,100360.17
2018-12-20T13:25:31.008Z,100364.70
2018-12-20T13:28:04.549Z,100358.34
2018-12-20T13:30:43.499Z,100356.51
2018-12-20T13:33:20.338Z,100356.15
2018-12-20T13:35:53.150Z,100360.85
2018-12-20T13:38:26.213Z,100364.82
2018-12-20T13:40:55.290Z,100370.20
2018-12-20T13:43:24.310Z,100372.05
2018-12-20T13:45:53.458Z,100374.12
2018-12-20T13:48:39.786Z,100375.71
2018-12-20T13:51:08.813Z,100369.03
2018-12-20T13:53:38.830Z,100368.22
2018-12-20T13:56:07.845Z,100365.67
2018-12-20T13:58:37.835Z,100363.22
2018-12-20T14:01:07.288Z,100358.61
2018-12-20T14:07:00.775Z,100365.70
2018-12-20T14:09:29.828Z,100367.03
2018-12-20T14:11:58.913Z,100364.77
2018-12-20T14:14:28.081Z,100363.73
2018-12-20T14:17:23.873Z,100360.53
2018-12-20T14:19:57.509Z,100365.34
2018-12-20T14:22:27.935Z,100360.83
2018-12-20T14:25:00.963Z,100363.31
2018-12-20T14:27:37.508Z,100357.33
2018-12-20T14:30:09.400Z,100361.34
2018-12-20T14:32:38.459Z,100363.17
2018-12-20T14:35:08.589Z,100363.50
2018-12-20T14:37:37.782Z,100361.55
2018-12-20T14:40:09.733Z,100365.34
2018-12-20T14:42:38.877Z,100364.33
2018-12-20T14:45:08.193Z,100363.39
2018-12-20T14:47:37.269Z,100361.26
2018-12-20T14:50:07.841Z,100365.87
2018-12-20T14:52:36.820Z,100364.42
2018-12-20T14:55:07.102Z,100355.91
2018-12-20T14:57:36.157Z,100362.08
2018-12-20T15:00:07.374Z,100359.81
2018-12-20T15:02:37.789Z,100360.00
2018-12-20T15:05:07.455Z,100364.11
2018-12-20T15:08:02.885Z,100370.20
2018-12-20T15:10:40.057Z,100372.33
2018-12-20T15:13:09.173Z,100368.52
2018-12-20T15:15:45.610Z,100366.67
2018-12-20T15:18:14.593Z,100374.94
2018-12-20T15:20:51.779Z,100368.16
2018-12-20T15:23:31.373Z,100383.11
2018-12-20T15:26:00.433Z,100388.72
2018-12-20T15:28:32.718Z,100388.83
2018-12-20T15:31:16.005Z,100388.50
2018-12-20T15:33:52.686Z,100398.22
2018-12-20T15:36:25.669Z,100391.98
2018-12-20T15:38:58.283Z,100388.27
2018-12-20T15:41:31.348Z,100392.78
2018-12-20T15:44:03.965Z,100397.38
2018-12-20T15:46:33.169Z,100394.42
2018-12-20T15:49:05.765Z,100390.48
2018-12-20T15:51:42.189Z,100390.00
2018-12-20T15:54:15.309Z,100391.22
2018-12-20T15:56:48.044Z,100389.38
2018-12-20T15:59:24.837Z,100392.38
2018-12-20T16:01:54.717Z,100391.98
2018-12-20T16:04:27.217Z,100388.66
2018-12-20T16:06:56.794Z,100397.10
2018-12-20T16:09:26.009Z,100400.98
2018-12-20T16:11:55.209Z,100406.00
2018-12-20T16:14:24.517Z,100403.86
2018-12-20T16:16:57.461Z,100404.05
2018-12-20T16:19:30.205Z,100406.71
2018-12-20T16:22:03.556Z,100415.05
2018-12-20T16:24:40.834Z,100413.60
2018-12-20T16:27:13.050Z,100424.49
2018-12-20T16:29:46.326Z,100422.87
2018-12-20T16:32:23.141Z,100425.72
2018-12-20T16:34:55.917Z,100417.70
2018-12-20T16:37:28.041Z,100421.33
2018-12-20T16:40:00.635Z,100430.22
2018-12-20T16:42:37.213Z,100416.59
2018-12-20T16:45:10.469Z,100422.64
2018-12-20T16:47:41.720Z,100429.59
2018-12-20T16:50:15.840Z,100436.66
2018-12-20T16:52:48.766Z,100432.66
2018-12-20T16:55:21.237Z,100425.81
2018-12-20T16:57:57.736Z,100428.82
2018-12-20T17:00:30.938Z,100435.78
2018-12-20T17:03:07.421Z,100439.55
2018-12-20T17:05:40.738Z,100436.38
2018-12-20T17:08:13.950Z,100429.30
2018-12-20T17:10:49.753Z,100435.55
2018-12-20T17:13:23.076Z,100432.27
2018-12-20T17:15:58.217Z,100427.77
2018-12-20T17:18:30.826Z,100427.26
2018-12-20T17:21:04.200Z,100434.54
2018-12-20T17:23:37.335Z,100434.87
2018-12-20T17:26:10.233Z,100436.81
2018-12-20T17:28:43.329Z,100432.72
2018-12-20T17:31:20.985Z,100431.16
2018-12-20T17:33:57.845Z,100428.49
2018-12-20T17:36:30.974Z,100429.72
2018-12-20T17:39:06.118Z,100423.33
2018-12-20T17:41:40.109Z,100426.31
2018-12-20T17:44:13.116Z,100428.36
2018-12-20T17:46:50.133Z,100420.16
2018-12-20T17:49:30.671Z,100426.64
2018-12-20T17:52:01.660Z,100423.03
2018-12-20T17:54:34.656Z,100420.98
2018-12-20T17:57:07.693Z,100417.70
2018-12-20T17:59:44.728Z,100420.55
2018-12-20T18:02:17.778Z,100426.91
2018-12-20T18:04:54.533Z,100429.14
2018-12-20T18:07:32.462Z,100414.98
2018-12-20T18:10:08.001Z,100414.58
2018-12-20T18:12:44.649Z,100413.42
2018-12-20T18:15:17.649Z,100413.13
2018-12-20T18:17:55.577Z,100419.81
2018-12-20T18:20:32.637Z,100417.86
2018-12-20T18:23:05.327Z,100417.47
2018-12-20T18:25:38.450Z,100419.70
2018-12-20T18:28:11.620Z,100414.09
2018-12-20T18:30:44.552Z,100410.53
2018-12-20T18:33:17.644Z,100405.81
2018-12-20T18:35:50.681Z,100410.31
2018-12-20T18:38:23.700Z,100403.33
2018-12-20T18:40:56.897Z,100405.25
2018-12-20T18:43:29.975Z,100402.41
2018-12-20T18:46:06.677Z,100407.52
2018-12-20T18:48:39.685Z,100405.88
2018-12-20T18:51:16.371Z,100409.61
2018-12-20T18:53:49.229Z,100407.91
2018-12-20T18:56:22.496Z,100415.19
2018-12-20T18:58:55.600Z,100407.66
2018-12-20T19:01:32.726Z,100406.41
2018-12-20T19:04:05.913Z,100409.27
2018-12-20T19:06:39.109Z,100413.47
2018-12-20T19:09:11.965Z,100412.97
2018-12-20T19:11:45.100Z,100413.37
2018-12-20T19:14:18.033Z,100413.37
2018-12-20T19:16:51.042Z,100417.98
2018-12-20T19:19:24.314Z,100418.82
2018-12-20T19:21:57.386Z,100413.99
2018-12-20T19:24:31.134Z,100413.99
2018-12-20T19:27:08.652Z,100432.48
2018-12-20T19:29:45.714Z,100427.48
2018-12-20T19:32:18.885Z,100422.66
2018-12-20T19:34:55.842Z,100418.56
2018-12-20T19:37:28.888Z,100420.10
2018-12-20T19:40:07.657Z,100418.77
2018-12-20T19:42:40.841Z,100422.77
2018-12-20T19:45:13.962Z,100421.88
2018-12-20T19:47:47.608Z,100417.05
2018-12-20T19:50:21.842Z,100413.56
2018-12-20T19:52:55.402Z,100414.50
2018-12-20T19:55:29.429Z,100423.84
2018-12-20T19:58:06.496Z,100420.16
2018-12-20T20:00:39.601Z,100416.27
2018-12-20T20:03:12.793Z,100417.00
2018-12-20T20:05:45.774Z,100424.50
2018-12-20T20:08:18.751Z,100412.89
2018-12-20T20:10:51.738Z,100408.38
2018-12-20T20:13:30.698Z,100411.34
2018-12-20T20:16:00.421Z,100410.95
2018-12-20T20:18:33.594Z,100414.77
2018-12-20T20:21:06.589Z,100412.09
2018-12-20T20:23:39.481Z,100403.05
2018-12-20T20:26:13.052Z,100401.22
2018-12-20T20:28:45.797Z,100401.43
2018-12-20T20:31:19.053Z,100407.16
2018-12-20T20:33:52.239Z,100408.42
2018-12-20T20:36:25.373Z,100406.27
2018-12-20T20:39:02.161Z,100404.83
2018-12-20T20:41:35.160Z,100405.77
2018-12-20T20:44:08.629Z,100407.09
2018-12-20T20:46:41.513Z,100403.13
2018-12-20T20:49:14.829Z,100401.04
2018-12-20T20:51:51.722Z,100404.53
2018-12-20T20:54:24.769Z,100408.03
2018-12-20T20:56:57.812Z,100411.92
2018-12-20T20:59:34.734Z,100414.20
2018-12-20T21:02:07.986Z,100407.13
2018-12-20T21:04:41.521Z,100413.37
2018-12-20T21:07:14.236Z,100418.20
2018-12-20T21:09:47.160Z,100421.70
2018-12-20T21:12:22.930Z,100418.20
2018-12-20T21:14:55.457Z,100417.48
2018-12-20T21:17:28.494Z,100421.81
2018-12-20T21:20:01.576Z,100418.53
2018-12-20T21:22:34.861Z,100410.63
2018-12-20T21:25:08.615Z,100414.45
2018-12-20T21:27:42.201Z,100422.96
2018-12-20T21:30:15.315Z,100414.02
2018-12-20T21:32:48.177Z,100407.77
2018-12-20T21:35:21.206Z,100406.12
2018-12-20T21:37:54.341Z,100409.72
2018-12-20T21:40:31.185Z,100409.51
2018-12-20T21:43:04.321Z,100403.45
2018-12-20T21:45:37.261Z,100409.08
2018-12-20T21:48:10.461Z,100418.53
2018-12-20T21:50:47.347Z,100411.86
2018-12-20T21:53:24.160Z,100404.89
2018-12-20T21:55:58.057Z,100399.73
2018-12-20T21:58:31.215Z,100400.24
2018-12-20T22:18:47.586Z,100391.64
2018-12-20T22:21:20.708Z,100390.92
2018-12-20T22:23:53.973Z,100395.76
2018-12-20T22:26:26.882Z,100398.21
2018-12-20T22:28:59.642Z,100398.03
2018-12-20T22:31:33.689Z,100389.80
2018-12-20T22:34:05.953Z,100382.41
2018-12-20T22:36:39.036Z,100381.98
2018-12-20T22:39:11.077Z,100383.43
2018-12-20T22:41:43.209Z,100379.53
2018-12-20T22:44:16.201Z,100380.15
2018-12-20T22:46:48.513Z,100377.27
2018-12-20T22:49:21.410Z,100377.27
2018-12-20T22:51:54.745Z,100378.81
2018-12-20T22:54:31.477Z,100385.67
2018-12-20T22:57:04.182Z,100390.83
2018-12-20T22:59:37.304Z,100389.86
2018-12-20T23:02:17.880Z,100390.98
2018-12-20T23:04:48.678Z,100386.98
2018-12-20T23:07:20.808Z,100389.97
2018-12-20T23:09:53.213Z,100397.50
2018-12-20T23:12:26.093Z,100400.82
2018-12-20T23:14:59.069Z,100401.33
2018-12-20T23:17:31.822Z,100391.05
2018-12-20T23:20:05.753Z,100391.50
2018-12-20T23:22:42.161Z,100388.20
2018-12-20T23:25:14.784Z,100385.70
2018-12-20T23:27:47.741Z,100373.78
2018-12-20T23:30:20.561Z,100376.48
2018-12-20T23:32:53.350Z,100375.65
2018-12-20T23:35:26.282Z,100365.05
2018-12-20T23:38:02.431Z,100365.27
2018-12-20T23:40:34.641Z,100364.44
2018-12-20T23:43:07.380Z,100362.89
2018-12-20T23:45:40.529Z,100362.20
2018-12-20T23:48:11.182Z,100355.11
2018-12-20T23:50:47.564Z,100352.87
2018-12-20T23:53:20.489Z,100357.72
2018-12-20T23:55:53.533Z,100351.34
2018-12-20T23:58:26.453Z,100351.12
